Shirahamamaru — JG4872 — position and weather

sailwx.info

Track history (hours):
 
Tides and Currents Weather Stations Pressure Air Temp Water Temp Dewpoint Dewpoint Depression Visibility Wind Speed Wind Dir Waves Ship Positions

Shirahamamaru

Last reported at 2014-Jul-24 04:33 UTC. Time now 2014-Jul-24 05:59 UTC.
Position N 35°12' E 139°46'.

Length 79 m; draft 3.2 m.

Type: Passenger vessel. MMSI: 431000239.

Date/timePositionNaut miles runAvg speedWind from/ knotsBaromVisibWave heightAir tempDewpointWater temp
2014-Jul-24 04:33N 35°12' E 139°46'0 0.3
2014-Jul-24 03:33N 35°12' E 139°46'2 1.5
2014-Jul-24 02:33N 35°11' E 139°47'3 2.6
2014-Jul-24 01:33N 35°13' E 139°45'3 2.6
2014-Jul-24 00:33N 35°11' E 139°47'2 2.4
2014-Jul-23 23:33N 35°13' E 139°45'1 1.2
2014-Jul-23 22:33N 35°12' E 139°46'1 1.3
2014-Jul-23 21:33N 35°13' E 139°45'2 0.1
2014-Jul-23 11:12N 35°13' E 139°43'6 8.8
2014-Jul-23 10:33N 35°10' E 139°49'3 3.1
2014-Jul-23 09:33N 35°12' E 139°46'1 1.2
2014-Jul-23 08:33N 35°12' E 139°47'2 2.1
2014-Jul-23 07:33N 35°13' E 139°45'2 2.1
2014-Jul-23 06:33N 35°11' E 139°47'2 2.1
2014-Jul-23 05:33N 35°13' E 139°45'1 1.4
2014-Jul-23 04:34N 35°12' E 139°47'1 0.9
2014-Jul-23 03:33N 35°12' E 139°46'1 1.2
2014-Jul-23 02:33N 35°12' E 139°47'2 2.3
2014-Jul-23 01:33N 35°13' E 139°45'2 2.3
2014-Jul-23 00:33N 35°12' E 139°47'2 2.2
2014-Jul-22 23:33N 35°13' E 139°45'1 1.3
2014-Jul-22 22:33N 35°12' E 139°46'1 1.1
2014-Jul-22 21:33N 35°13' E 139°45'2 0.2
2014-Jul-22 11:13N 35°13' E 139°43'6 8.6
2014-Jul-22 10:33N 35°10' E 139°49'3 3.0
2014-Jul-22 09:33N 35°12' E 139°46'1 1.0
2014-Jul-22 08:34N 35°12' E 139°47'2 1.9
2014-Jul-22 07:34N 35°13' E 139°45'2 2.0
2014-Jul-22 06:33N 35°12' E 139°47'2 2.1
2014-Jul-22 05:33N 35°13' E 139°45'1 1.0
2014-Jul-22 04:34N 35°12' E 139°46'0 0.1
2014-Jul-22 03:33N 35°12' E 139°46'1 1.1
2014-Jul-22 02:33N 35°12' E 139°47'2 2.3
2014-Jul-22 01:34N 35°13' E 139°45'2 2.5
2014-Jul-22 00:33N 35°11' E 139°47'2 2.5
2014-Jul-21 23:34N 35°13' E 139°45'1 1.4
2014-Jul-21 22:34N 35°12' E 139°46'1 1.4
2014-Jul-21 21:34N 35°13' E 139°45'1 1.4
2014-Jul-21 20:34N 35°13' E 139°43'0 0.0
2014-Jul-21 11:08N 35°13' E 139°43'6 9.9
2014-Jul-21 10:33N 35°10' E 139°49'3 3.3
2014-Jul-21 09:34N 35°12' E 139°46'2 2.2
2014-Jul-21 08:34N 35°11' E 139°48'3 3.2
2014-Jul-21 07:34N 35°13' E 139°45'2 2.3
2014-Jul-21 06:34N 35°11' E 139°47'2 2.1
2014-Jul-21 05:34N 35°13' E 139°45'1 1.3
2014-Jul-21 04:34N 35°12' E 139°46'1 0.8
2014-Jul-21 03:34N 35°12' E 139°45'2 1.9
2014-Jul-21 02:33N 35°11' E 139°47'3 2.9
2014-Jul-21 01:34N 35°13' E 139°44'3 2.7
2014-Jul-21 00:33N 35°11' E 139°47'2 2.4
2014-Jul-20 23:34N 35°13' E 139°45'2 1.5
2014-Jul-20 22:33N 35°12' E 139°46'1 1.4
2014-Jul-20 21:34N 35°13' E 139°45'2 1.5
2014-Jul-20 20:34N 35°13' E 139°43'0 0.0
2014-Jul-20 11:11N 35°13' E 139°43'6 9.2
2014-Jul-20 10:33N 35°10' E 139°49'3 3.3
2014-Jul-20 09:33N 35°12' E 139°46'1 1.3
2014-Jul-20 08:33N 35°12' E 139°47'2 2.2
2014-Jul-20 07:33N 35°13' E 139°45'2 2.2
2014-Jul-20 06:33N 35°11' E 139°47'2 2.5
2014-Jul-20 05:33N 35°13' E 139°44'2 1.5
2014-Jul-20 04:33N 35°12' E 139°46'1 0.8
2014-Jul-20 03:33N 35°12' E 139°45'2 1.7
2014-Jul-20 02:33N 35°11' E 139°47'2 2.3
2014-Jul-20 01:33N 35°13' E 139°45'2 2.3
2014-Jul-20 00:33N 35°12' E 139°47'2 2.3
2014-Jul-19 23:33N 35°13' E 139°45'2 1.6
2014-Jul-19 22:33N 35°11' E 139°46'2 1.5
2014-Jul-19 21:33N 35°13' E 139°45'2 0.2
2014-Jul-19 11:13N 35°13' E 139°43'6 8.5
2014-Jul-19 10:33N 35°10' E 139°49'3 3.0
2014-Jul-19 09:34N 35°12' E 139°46'1 1.2
2014-Jul-19 08:33N 35°11' E 139°47'2 2.3
2014-Jul-19 07:33N 35°13' E 139°45'2 2.4
2014-Jul-19 06:34N 35°11' E 139°47'2 2.3
2014-Jul-19 05:33N 35°13' E 139°45'1 1.4
2014-Jul-19 04:34N 35°12' E 139°46'1 0.6
2014-Jul-19 03:33N 35°12' E 139°46'1 1.4
2014-Jul-19 02:33N 35°11' E 139°47'3 2.5
2014-Jul-19 01:33N 35°13' E 139°44'3 2.6
2014-Jul-19 00:33N 35°11' E 139°47'2 2.4
2014-Jul-18 23:33N 35°13' E 139°45'1 1.4
2014-Jul-18 22:34N 35°12' E 139°46'1 1.2
2014-Jul-18 21:33N 35°13' E 139°45'2 0.2
2014-Jul-18 11:12N 35°13' E 139°43'6 8.9
2014-Jul-18 10:33N 35°10' E 139°49'3 3.2
2014-Jul-18 09:33N 35°13' E 139°46'1 1.4
2014-Jul-18 08:33N 35°11' E 139°47'2 2.4
2014-Jul-18 07:33N 35°13' E 139°44'2 2.5
2014-Jul-18 06:33N 35°11' E 139°47'2 2.3
2014-Jul-18 05:33N 35°13' E 139°45'1 1.2
2014-Jul-18 04:33N 35°12' E 139°46'1 0.7
2014-Jul-18 03:33N 35°12' E 139°45'2 1.7
2014-Jul-18 02:33N 35°11' E 139°47'2 2.1
2014-Jul-18 01:33N 35°13' E 139°45'2 2.2
2014-Jul-18 00:33N 35°11' E 139°47'3 2.6
2014-Jul-17 23:33N 35°13' E 139°44'2 1.6
2014-Jul-17 22:33N 35°12' E 139°46'2 1.5
2014-Jul-17 21:33N 35°13' E 139°45'1 0.1
2014-Jul-17 11:12N 35°13' E 139°43'6 8.9
2014-Jul-17 10:33N 35°10' E 139°49'3 3.1
2014-Jul-17 09:33N 35°12' E 139°46'1 1.3
2014-Jul-17 08:33N 35°11' E 139°47'2 2.2
2014-Jul-17 07:33N 35°13' E 139°45'2 2.3
2014-Jul-17 06:33N 35°11' E 139°47'2 2.4
2014-Jul-17 05:33N 35°13' E 139°45'1 1.2
2014-Jul-17 04:33N 35°12' E 139°46'0 0.4
2014-Jul-17 03:33N 35°12' E 139°45'2 1.7
2014-Jul-17 02:33N 35°11' E 139°47'3 2.5
2014-Jul-17 01:33N 35°13' E 139°45'2 2.2
2014-Jul-17 00:33N 35°11' E 139°47'2 2.2
2014-Jul-16 23:33N 35°13' E 139°45'1 1.5
2014-Jul-16 22:33N 35°12' E 139°46'2 1.5
2014-Jul-16 21:33N 35°13' E 139°45'1 0.1
2014-Jul-16 11:13N 35°13' E 139°43'6 8.4
2014-Jul-16 10:33N 35°10' E 139°49'3 3.1
2014-Jul-16 09:33N 35°12' E 139°46'1 1.3
2014-Jul-16 08:34N 35°12' E 139°47'2 2.3
2014-Jul-16 07:33N 35°13' E 139°45'2 2.2
2014-Jul-16 06:34N 35°12' E 139°47'2 2.3
2014-Jul-16 05:33N 35°13' E 139°45'2 1.7
2014-Jul-16 04:33N 35°12' E 139°46'1 0.6
2014-Jul-16 03:34N 35°12' E 139°46'1 1.5
2014-Jul-16 02:33N 35°11' E 139°47'2 1.9
2014-Jul-16 01:33N 35°10' E 139°49'0 0.0
2014-Jul-16 00:33N 35°10' E 139°49'4 4.5
2014-Jul-15 23:33N 35°13' E 139°45'1 1.4
2014-Jul-15 22:34N 35°12' E 139°46'1 1.2
2014-Jul-15 21:33N 35°13' E 139°45'2 0.2
2014-Jul-15 11:13N 35°13' E 139°43'6 8.5
2014-Jul-15 10:33N 35°10' E 139°49'3 3.0
2014-Jul-15 09:33N 35°12' E 139°46'1 1.1
2014-Jul-15 08:34N 35°12' E 139°47'2 2.1
2014-Jul-15 07:33N 35°13' E 139°45'2 2.1
2014-Jul-15 06:33N 35°12' E 139°47'2 2.4
2014-Jul-15 05:33N 35°13' E 139°45'2 1.6
2014-Jul-15 04:33N 35°12' E 139°46'0 0.3
2014-Jul-15 03:33N 35°12' E 139°46'1 1.4
2014-Jul-15 02:33N 35°11' E 139°47'3 2.6
2014-Jul-15 01:33N 35°13' E 139°45'2 2.4
2014-Jul-15 00:33N 35°11' E 139°47'2 2.2
2014-Jul-14 23:33N 35°13' E 139°45'2 1.6
2014-Jul-14 22:33N 35°11' E 139°46'2 1.6
2014-Jul-14 21:33N 35°13' E 139°45'2 0.2
2014-Jul-14 11:23N 35°13' E 139°43'6 6.9
2014-Jul-14 10:33N 35°10' E 139°49'3 3.1
2014-Jul-14 09:33N 35°12' E 139°46'1 1.1
2014-Jul-14 08:33N 35°12' E 139°47'2 2.2
2014-Jul-14 07:33N 35°13' E 139°45'2 2.4
2014-Jul-14 06:33N 35°11' E 139°47'2 2.3
2014-Jul-14 05:33N 35°13' E 139°45'1 1.2
2014-Jul-14 04:33N 35°12' E 139°46'  
Track history (hours):
 
Tides and Currents Weather Stations Pressure Air Temp Water Temp Dewpoint Dewpoint Depression Visibility Wind Speed Wind Dir Waves Ship Positions

Shirahamamaru

Last reported at 2014-Jul-24 04:33 UTC. Time now 2014-Jul-24 05:59 UTC.
Position N 35°12' E 139°46'.

Length 79 m; draft 3.2 m.

Type: Passenger vessel. MMSI: 431000239.

Date/timePositionNaut miles runAvg speedWind from/ knotsBaromVisibWave heightAir tempDewpointWater temp
2014-Jul-24 04:33N 35°12' E 139°46'0 0.3
2014-Jul-24 03:33N 35°12' E 139°46'2 1.5
2014-Jul-24 02:33N 35°11' E 139°47'3 2.6
2014-Jul-24 01:33N 35°13' E 139°45'3 2.6
2014-Jul-24 00:33N 35°11' E 139°47'2 2.4
2014-Jul-23 23:33N 35°13' E 139°45'1 1.2
2014-Jul-23 22:33N 35°12' E 139°46'1 1.3
2014-Jul-23 21:33N 35°13' E 139°45'2 0.1
2014-Jul-23 11:12N 35°13' E 139°43'6 8.8
2014-Jul-23 10:33N 35°10' E 139°49'3 3.1
2014-Jul-23 09:33N 35°12' E 139°46'1 1.2
2014-Jul-23 08:33N 35°12' E 139°47'2 2.1
2014-Jul-23 07:33N 35°13' E 139°45'2 2.1
2014-Jul-23 06:33N 35°11' E 139°47'2 2.1
2014-Jul-23 05:33N 35°13' E 139°45'1 1.4
2014-Jul-23 04:34N 35°12' E 139°47'1 0.9
2014-Jul-23 03:33N 35°12' E 139°46'1 1.2
2014-Jul-23 02:33N 35°12' E 139°47'2 2.3
2014-Jul-23 01:33N 35°13' E 139°45'2 2.3
2014-Jul-23 00:33N 35°12' E 139°47'2 2.2
2014-Jul-22 23:33N 35°13' E 139°45'1 1.3
2014-Jul-22 22:33N 35°12' E 139°46'1 1.1
2014-Jul-22 21:33N 35°13' E 139°45'2 0.2
2014-Jul-22 11:13N 35°13' E 139°43'6 8.6
2014-Jul-22 10:33N 35°10' E 139°49'3 3.0
2014-Jul-22 09:33N 35°12' E 139°46'1 1.0
2014-Jul-22 08:34N 35°12' E 139°47'2 1.9
2014-Jul-22 07:34N 35°13' E 139°45'2 2.0
2014-Jul-22 06:33N 35°12' E 139°47'2 2.1
2014-Jul-22 05:33N 35°13' E 139°45'1 1.0
2014-Jul-22 04:34N 35°12' E 139°46'0 0.1
2014-Jul-22 03:33N 35°12' E 139°46'1 1.1
2014-Jul-22 02:33N 35°12' E 139°47'2 2.3
2014-Jul-22 01:34N 35°13' E 139°45'2 2.5
2014-Jul-22 00:33N 35°11' E 139°47'2 2.5
2014-Jul-21 23:34N 35°13' E 139°45'1 1.4
2014-Jul-21 22:34N 35°12' E 139°46'1 1.4
2014-Jul-21 21:34N 35°13' E 139°45'1 1.4
2014-Jul-21 20:34N 35°13' E 139°43'0 0.0
2014-Jul-21 11:08N 35°13' E 139°43'6 9.9
2014-Jul-21 10:33N 35°10' E 139°49'3 3.3
2014-Jul-21 09:34N 35°12' E 139°46'2 2.2
2014-Jul-21 08:34N 35°11' E 139°48'3 3.2
2014-Jul-21 07:34N 35°13' E 139°45'2 2.3
2014-Jul-21 06:34N 35°11' E 139°47'2 2.1
2014-Jul-21 05:34N 35°13' E 139°45'1 1.3
2014-Jul-21 04:34N 35°12' E 139°46'1 0.8
2014-Jul-21 03:34N 35°12' E 139°45'2 1.9
2014-Jul-21 02:33N 35°11' E 139°47'3 2.9
2014-Jul-21 01:34N 35°13' E 139°44'3 2.7
2014-Jul-21 00:33N 35°11' E 139°47'2 2.4
2014-Jul-20 23:34N 35°13' E 139°45'2 1.5
2014-Jul-20 22:33N 35°12' E 139°46'1 1.4
2014-Jul-20 21:34N 35°13' E 139°45'2 1.5
2014-Jul-20 20:34N 35°13' E 139°43'0 0.0
2014-Jul-20 11:11N 35°13' E 139°43'6 9.2
2014-Jul-20 10:33N 35°10' E 139°49'3 3.3
2014-Jul-20 09:33N 35°12' E 139°46'1 1.3
2014-Jul-20 08:33N 35°12' E 139°47'2 2.2
2014-Jul-20 07:33N 35°13' E 139°45'2 2.2
2014-Jul-20 06:33N 35°11' E 139°47'2 2.5
2014-Jul-20 05:33N 35°13' E 139°44'2 1.5
2014-Jul-20 04:33N 35°12' E 139°46'1 0.8
2014-Jul-20 03:33N 35°12' E 139°45'2 1.7
2014-Jul-20 02:33N 35°11' E 139°47'2 2.3
2014-Jul-20 01:33N 35°13' E 139°45'2 2.3
2014-Jul-20 00:33N 35°12' E 139°47'2 2.3
2014-Jul-19 23:33N 35°13' E 139°45'2 1.6
2014-Jul-19 22:33N 35°11' E 139°46'2 1.5
2014-Jul-19 21:33N 35°13' E 139°45'2 0.2
2014-Jul-19 11:13N 35°13' E 139°43'6 8.5
2014-Jul-19 10:33N 35°10' E 139°49'3 3.0
2014-Jul-19 09:34N 35°12' E 139°46'1 1.2
2014-Jul-19 08:33N 35°11' E 139°47'2 2.3
2014-Jul-19 07:33N 35°13' E 139°45'2 2.4
2014-Jul-19 06:34N 35°11' E 139°47'2 2.3
2014-Jul-19 05:33N 35°13' E 139°45'1 1.4
2014-Jul-19 04:34N 35°12' E 139°46'1 0.6
2014-Jul-19 03:33N 35°12' E 139°46'1 1.4
2014-Jul-19 02:33N 35°11' E 139°47'3 2.5
2014-Jul-19 01:33N 35°13' E 139°44'3 2.6
2014-Jul-19 00:33N 35°11' E 139°47'2 2.4
2014-Jul-18 23:33N 35°13' E 139°45'1 1.4
2014-Jul-18 22:34N 35°12' E 139°46'1 1.2
2014-Jul-18 21:33N 35°13' E 139°45'2 0.2
2014-Jul-18 11:12N 35°13' E 139°43'6 8.9
2014-Jul-18 10:33N 35°10' E 139°49'3 3.2
2014-Jul-18 09:33N 35°13' E 139°46'1 1.4
2014-Jul-18 08:33N 35°11' E 139°47'2 2.4
2014-Jul-18 07:33N 35°13' E 139°44'2 2.5
2014-Jul-18 06:33N 35°11' E 139°47'2 2.3
2014-Jul-18 05:33N 35°13' E 139°45'1 1.2
2014-Jul-18 04:33N 35°12' E 139°46'1 0.7
2014-Jul-18 03:33N 35°12' E 139°45'2 1.7
2014-Jul-18 02:33N 35°11' E 139°47'2 2.1
2014-Jul-18 01:33N 35°13' E 139°45'2 2.2
2014-Jul-18 00:33N 35°11' E 139°47'3 2.6
2014-Jul-17 23:33N 35°13' E 139°44'2 1.6
2014-Jul-17 22:33N 35°12' E 139°46'2 1.5
2014-Jul-17 21:33N 35°13' E 139°45'1 0.1
2014-Jul-17 11:12N 35°13' E 139°43'6 8.9
2014-Jul-17 10:33N 35°10' E 139°49'3 3.1
2014-Jul-17 09:33N 35°12' E 139°46'1 1.3
2014-Jul-17 08:33N 35°11' E 139°47'2 2.2
2014-Jul-17 07:33N 35°13' E 139°45'2 2.3
2014-Jul-17 06:33N 35°11' E 139°47'2 2.4
2014-Jul-17 05:33N 35°13' E 139°45'1 1.2
2014-Jul-17 04:33N 35°12' E 139°46'0 0.4
2014-Jul-17 03:33N 35°12' E 139°45'2 1.7
2014-Jul-17 02:33N 35°11' E 139°47'3 2.5
2014-Jul-17 01:33N 35°13' E 139°45'2 2.2
2014-Jul-17 00:33N 35°11' E 139°47'2 2.2
2014-Jul-16 23:33N 35°13' E 139°45'1 1.5
2014-Jul-16 22:33N 35°12' E 139°46'2 1.5
2014-Jul-16 21:33N 35°13' E 139°45'1 0.1
2014-Jul-16 11:13N 35°13' E 139°43'6 8.4
2014-Jul-16 10:33N 35°10' E 139°49'3 3.1
2014-Jul-16 09:33N 35°12' E 139°46'1 1.3
2014-Jul-16 08:34N 35°12' E 139°47'2 2.3
2014-Jul-16 07:33N 35°13' E 139°45'2 2.2
2014-Jul-16 06:34N 35°12' E 139°47'2 2.3
2014-Jul-16 05:33N 35°13' E 139°45'2 1.7
2014-Jul-16 04:33N 35°12' E 139°46'1 0.6
2014-Jul-16 03:34N 35°12' E 139°46'1 1.5
2014-Jul-16 02:33N 35°11' E 139°47'2 1.9
2014-Jul-16 01:33N 35°10' E 139°49'0 0.0
2014-Jul-16 00:33N 35°10' E 139°49'4 4.5
2014-Jul-15 23:33N 35°13' E 139°45'1 1.4
2014-Jul-15 22:34N 35°12' E 139°46'1 1.2
2014-Jul-15 21:33N 35°13' E 139°45'2 0.2
2014-Jul-15 11:13N 35°13' E 139°43'6 8.5
2014-Jul-15 10:33N 35°10' E 139°49'3 3.0
2014-Jul-15 09:33N 35°12' E 139°46'1 1.1
2014-Jul-15 08:34N 35°12' E 139°47'2 2.1
2014-Jul-15 07:33N 35°13' E 139°45'2 2.1
2014-Jul-15 06:33N 35°12' E 139°47'2 2.4
2014-Jul-15 05:33N 35°13' E 139°45'2 1.6
2014-Jul-15 04:33N 35°12' E 139°46'0 0.3
2014-Jul-15 03:33N 35°12' E 139°46'1 1.4
2014-Jul-15 02:33N 35°11' E 139°47'3 2.6
2014-Jul-15 01:33N 35°13' E 139°45'2 2.4
2014-Jul-15 00:33N 35°11' E 139°47'2 2.2
2014-Jul-14 23:33N 35°13' E 139°45'2 1.6
2014-Jul-14 22:33N 35°11' E 139°46'2 1.6
2014-Jul-14 21:33N 35°13' E 139°45'2 0.2
2014-Jul-14 11:23N 35°13' E 139°43'6 6.9
2014-Jul-14 10:33N 35°10' E 139°49'3 3.1
2014-Jul-14 09:33N 35°12' E 139°46'1 1.1
2014-Jul-14 08:33N 35°12' E 139°47'2 2.2
2014-Jul-14 07:33N 35°13' E 139°45'2 2.4
2014-Jul-14 06:33N 35°11' E 139°47'2 2.3
2014-Jul-14 05:33N 35°13' E 139°45'1 1.2
2014-Jul-14 04:33N 35°12' E 139°46'  

Dump ship's entire track history